createdAt,value
2019-05-07T00:01:51.044Z,99.90
2019-05-07T00:04:17.693Z,99.90
2019-05-07T00:06:46.090Z,99.90
2019-05-07T00:09:14.642Z,99.90
2019-05-07T00:11:43.054Z,99.90
2019-05-07T00:14:12.582Z,99.90
2019-05-07T00:16:42.218Z,99.90
2019-05-07T00:19:12.824Z,99.90
2019-05-07T00:21:42.252Z,99.90
2019-05-07T00:24:13.093Z,99.90
2019-05-07T00:26:43.130Z,99.90
2019-05-07T00:29:12.952Z,99.90
2019-05-07T00:31:42.171Z,99.90
2019-05-07T00:34:12.634Z,99.90
2019-05-07T00:36:42.522Z,99.90
2019-05-07T00:39:28.056Z,99.90
2019-05-07T00:41:58.097Z,99.90
2019-05-07T00:44:26.662Z,99.90
2019-05-07T00:46:55.067Z,99.90
2019-05-07T00:49:25.239Z,99.90
2019-05-07T00:51:53.647Z,99.90
2019-05-07T00:54:23.013Z,99.90
2019-05-07T00:56:52.105Z,99.90
2019-05-07T00:59:22.558Z,99.90
2019-05-07T01:01:52.742Z,99.90
2019-05-07T01:04:22.896Z,99.90
2019-05-07T01:06:53.039Z,99.90
2019-05-07T01:09:22.864Z,99.90
2019-05-07T01:11:52.256Z,99.90
2019-05-07T01:14:22.779Z,99.90
2019-05-07T01:16:52.879Z,99.90
2019-05-07T01:21:52.467Z,99.90
2019-05-07T01:24:23.262Z,99.90
2019-05-07T01:26:52.989Z,99.90
2019-05-07T01:29:22.589Z,99.90
2019-05-07T01:31:52.785Z,99.90
2019-05-07T01:34:23.147Z,99.90
2019-05-07T01:36:52.330Z,99.90
2019-05-07T01:39:23.056Z,99.90
2019-05-07T01:41:52.427Z,99.90
2019-05-07T01:44:22.125Z,99.90
2019-05-07T01:46:52.737Z,99.90
2019-05-07T01:49:20.887Z,99.90
2019-05-07T01:51:49.322Z,99.90
2019-05-07T01:54:17.730Z,99.90
2019-05-07T01:56:46.134Z,99.90
2019-05-07T01:59:14.611Z,99.90
2019-05-07T02:01:43.479Z,99.90
2019-05-07T02:04:13.527Z,99.90
2019-05-07T02:06:59.781Z,99.90
2019-05-07T02:09:34.044Z,99.90
2019-05-07T02:12:04.270Z,99.90
2019-05-07T02:14:33.145Z,99.90
2019-05-07T02:17:03.027Z,99.90
2019-05-07T02:19:32.904Z,99.90
2019-05-07T02:22:02.752Z,99.90
2019-05-07T02:24:33.695Z,99.90
2019-05-07T02:27:03.039Z,99.90
2019-05-07T02:29:32.403Z,99.90
2019-05-07T02:32:04.289Z,99.90
2019-05-07T02:34:34.085Z,99.90
2019-05-07T02:37:04.051Z,99.90
2019-05-07T02:39:45.640Z,99.90
2019-05-07T02:42:14.031Z,99.90
2019-05-07T02:44:59.174Z,99.90
2019-05-07T02:47:29.314Z,99.90
2019-05-07T02:50:03.031Z,99.90
2019-05-07T02:52:53.767Z,99.90
2019-05-07T02:55:33.692Z,99.90
2019-05-07T02:58:03.488Z,99.90
2019-05-07T03:00:33.398Z,99.90
2019-05-07T03:03:04.194Z,99.90
2019-05-07T03:05:34.888Z,99.90
2019-05-07T03:08:03.563Z,99.90
2019-05-07T03:10:34.073Z,99.90
2019-05-07T03:13:03.210Z,99.90
2019-05-07T03:15:33.507Z,99.90
2019-05-07T03:18:03.362Z,99.90
2019-05-07T03:20:34.861Z,99.90
2019-05-07T03:23:04.032Z,99.90
2019-05-07T03:25:37.023Z,99.90
2019-05-07T03:28:05.453Z,99.90
2019-05-07T03:30:36.424Z,99.90
2019-05-07T03:33:16.555Z,99.90
2019-05-07T03:35:56.110Z,99.90
2019-05-07T03:38:22.868Z,99.90
2019-05-07T03:40:53.228Z,99.90
2019-05-07T03:43:22.867Z,99.90
2019-05-07T03:45:54.005Z,99.90
2019-05-07T03:48:24.375Z,99.90
2019-05-07T03:50:53.293Z,99.90
2019-05-07T03:53:23.014Z,99.90
2019-05-07T03:55:53.852Z,99.90
2019-05-07T03:58:23.520Z,99.90
2019-05-07T04:00:53.563Z,99.90
2019-05-07T04:03:24.352Z,99.90
2019-05-07T04:05:53.323Z,99.90
2019-05-07T04:08:23.652Z,99.90
2019-05-07T04:10:53.788Z,99.90
2019-05-07T04:13:24.028Z,99.90
2019-05-07T04:15:52.727Z,99.90
2019-05-07T04:18:23.615Z,99.90
2019-05-07T04:20:54.100Z,99.90
2019-05-07T04:23:23.220Z,99.90
2019-05-07T04:25:53.271Z,99.90
2019-05-07T04:28:24.129Z,99.90
2019-05-07T04:30:53.438Z,99.90
2019-05-07T04:33:23.930Z,99.90
2019-05-07T04:35:57.003Z,99.90
2019-05-07T04:38:25.423Z,99.90
2019-05-07T04:40:53.950Z,99.90
2019-05-07T04:43:23.335Z,99.90
2019-05-07T04:45:53.690Z,99.90
2019-05-07T04:48:23.310Z,99.90
2019-05-07T04:50:54.354Z,99.90
2019-05-07T04:53:23.640Z,99.90
2019-05-07T04:55:53.565Z,99.90
2019-05-07T04:58:23.604Z,99.90
2019-05-07T05:00:53.725Z,99.90
2019-05-07T05:03:24.319Z,99.90
2019-05-07T05:05:53.462Z,99.90
2019-05-07T05:08:23.430Z,99.90
2019-05-07T05:10:53.783Z,99.90
2019-05-07T05:13:23.483Z,99.90
2019-05-07T05:15:52.850Z,99.90
2019-05-07T05:18:22.038Z,99.90
2019-05-07T05:21:12.133Z,99.90
2019-05-07T05:23:44.470Z,99.90
2019-05-07T05:26:12.872Z,99.90
2019-05-07T05:28:41.910Z,99.90
2019-05-07T05:31:12.479Z,99.90
2019-05-07T05:33:41.936Z,99.90
2019-05-07T05:36:12.577Z,99.90
2019-05-07T05:38:42.343Z,99.90
2019-05-07T05:41:12.326Z,99.90
2019-05-07T05:43:42.671Z,99.90
2019-05-07T05:46:12.763Z,99.90
2019-05-07T05:48:42.520Z,99.90
2019-05-07T05:51:15.766Z,99.90
2019-05-07T05:53:45.804Z,99.90
2019-05-07T05:56:24.841Z,99.90
2019-05-07T05:59:04.122Z,99.90
2019-05-07T06:01:52.111Z,99.90
2019-05-07T06:04:28.250Z,99.90
2019-05-07T06:07:14.952Z,99.90
2019-05-07T06:09:54.054Z,99.90
2019-05-07T06:12:24.090Z,99.90
2019-05-07T06:15:01.689Z,99.90
2019-05-07T06:17:37.385Z,99.90
2019-05-07T06:20:24.588Z,99.90
2019-05-07T06:23:12.840Z,99.90
2019-05-07T06:25:43.476Z,99.90
2019-05-07T06:28:12.625Z,99.90
2019-05-07T06:30:41.959Z,99.90
2019-05-07T06:33:12.458Z,99.90
2019-05-07T06:35:42.313Z,99.90
2019-05-07T06:38:12.443Z,99.90
2019-05-07T06:40:57.811Z,99.90
2019-05-07T06:43:46.439Z,99.90
2019-05-07T06:46:14.923Z,99.90
2019-05-07T06:48:46.129Z,99.90
2019-05-07T06:51:13.459Z,99.90
2019-05-07T06:53:42.240Z,99.90
2019-05-07T06:56:12.219Z,99.90
2019-05-07T06:58:52.623Z,99.90
2019-05-07T07:01:25.800Z,99.90
2019-05-07T07:04:05.150Z,99.90
2019-05-07T07:06:52.338Z,99.90
2019-05-07T07:09:22.461Z,99.90
2019-05-07T07:11:52.964Z,99.90
2019-05-07T07:14:22.749Z,99.90
2019-05-07T07:19:23.132Z,99.90
2019-05-07T07:21:52.702Z,99.90
2019-05-07T07:24:22.147Z,99.90
2019-05-07T07:26:52.854Z,99.90
2019-05-07T07:29:22.995Z,99.90
2019-05-07T07:31:55.924Z,99.90
2019-05-07T07:34:25.299Z,99.90
2019-05-07T07:37:04.995Z,99.90
2019-05-07T07:39:25.551Z,99.90
2019-05-07T07:41:55.594Z,99.90
2019-05-07T07:44:24.023Z,99.90
2019-05-07T07:46:53.169Z,99.90
2019-05-07T07:49:22.333Z,99.90
2019-05-07T07:51:52.621Z,99.90
2019-05-07T07:54:22.688Z,99.90
2019-05-07T07:56:55.696Z,99.90
2019-05-07T07:59:41.957Z,99.90
2019-05-07T08:02:32.066Z,99.90
2019-05-07T08:05:01.969Z,99.90
2019-05-07T08:07:30.182Z,99.90
2019-05-07T08:09:58.833Z,99.90
2019-05-07T08:12:27.242Z,99.90
2019-05-07T08:15:11.081Z,99.90
2019-05-07T08:17:25.849Z,99.90
2019-05-07T08:19:54.326Z,99.90
2019-05-07T08:22:22.856Z,99.90
2019-05-07T08:24:51.920Z,99.90
2019-05-07T08:27:22.192Z,99.90
2019-05-07T08:29:52.509Z,99.90
2019-05-07T08:32:22.678Z,99.90
2019-05-07T08:34:52.730Z,99.90
2019-05-07T08:37:24.247Z,99.90
2019-05-07T08:39:52.009Z,98.90
2019-05-07T08:42:22.662Z,96.90
2019-05-07T08:45:04.171Z,97.20
2019-05-07T08:47:34.258Z,97.30
2019-05-07T08:50:02.995Z,92.80
2019-05-07T08:52:32.692Z,89.00
2019-05-07T08:57:31.830Z,87.40
2019-05-07T09:00:02.232Z,93.80
2019-05-07T09:02:32.424Z,95.10
2019-05-07T09:05:02.762Z,95.60
2019-05-07T09:07:32.176Z,96.60
2019-05-07T09:10:02.546Z,97.00
2019-05-07T09:12:31.837Z,99.30
2019-05-07T09:15:02.191Z,99.90
2019-05-07T09:17:31.862Z,99.90
2019-05-07T09:20:02.377Z,98.20
2019-05-07T09:22:32.289Z,89.20
2019-05-07T09:27:32.695Z,83.60
2019-05-07T09:30:18.045Z,87.50
2019-05-07T09:32:52.169Z,90.90
2019-05-07T09:35:32.092Z,91.70
2019-05-07T09:38:00.677Z,93.50
2019-05-07T09:40:29.084Z,93.80
2019-05-07T09:42:57.494Z,94.20
2019-05-07T09:45:25.891Z,93.90
2019-05-07T09:47:54.369Z,95.10
2019-05-07T09:50:22.838Z,92.80
2019-05-07T09:52:51.866Z,91.90
2019-05-07T09:55:20.441Z,70.40
2019-05-07T09:57:48.838Z,60.60
2019-05-07T10:00:18.479Z,48.70
2019-05-07T10:02:47.027Z,47.80
2019-05-07T10:07:43.634Z,48.60
2019-05-07T10:10:12.490Z,48.40
2019-05-07T10:12:42.599Z,43.40
2019-05-07T10:15:12.323Z,41.20
2019-05-07T10:18:01.859Z,41.50
2019-05-07T10:20:32.567Z,42.70
2019-05-07T10:25:39.130Z,46.90
2019-05-07T10:28:07.774Z,50.30
2019-05-07T10:30:36.458Z,53.50
2019-05-07T10:33:05.802Z,56.50
2019-05-07T10:35:34.266Z,63.30
2019-05-07T10:38:02.675Z,61.40
2019-05-07T10:40:32.702Z,66.60
2019-05-07T10:43:01.323Z,65.20
2019-05-07T10:45:37.831Z,67.40
2019-05-07T10:48:13.706Z,69.80
2019-05-07T10:50:46.482Z,71.40
2019-05-07T10:53:14.959Z,73.70
2019-05-07T10:55:45.551Z,76.60
2019-05-07T10:58:13.501Z,77.70
2019-05-07T11:00:42.177Z,81.00
2019-05-07T11:03:12.570Z,87.40
2019-05-07T11:05:41.836Z,98.70
2019-05-07T11:08:10.904Z,99.90
2019-05-07T11:10:41.733Z,99.90
2019-05-07T11:13:09.918Z,99.90
2019-05-07T11:15:38.891Z,99.90
2019-05-07T11:18:09.007Z,99.90
2019-05-07T11:20:47.307Z,99.90
2019-05-07T11:23:07.554Z,99.90
2019-05-07T11:25:35.958Z,99.20
2019-05-07T11:28:04.711Z,98.50
2019-05-07T11:30:33.887Z,95.70
2019-05-07T11:33:02.822Z,96.70
2019-05-07T11:35:31.919Z,93.30
2019-05-07T11:38:02.611Z,95.30
2019-05-07T11:40:32.198Z,95.00
2019-05-07T11:43:18.782Z,95.50
2019-05-07T11:45:54.764Z,98.50
2019-05-07T11:48:24.875Z,94.00
2019-05-07T11:51:03.334Z,92.90
2019-05-07T11:53:32.844Z,92.60
2019-05-07T11:56:02.560Z,90.60
2019-05-07T11:58:32.492Z,90.70
2019-05-07T12:01:05.742Z,90.70
2019-05-07T12:03:44.250Z,92.00
2019-05-07T12:06:12.763Z,89.40
2019-05-07T12:08:45.913Z,90.00
2019-05-07T12:11:11.921Z,85.60
2019-05-07T12:13:42.549Z,88.00
2019-05-07T12:16:13.665Z,85.60
2019-05-07T12:18:42.953Z,87.20
2019-05-07T12:21:18.226Z,82.70
2019-05-07T12:23:42.201Z,85.30
2019-05-07T12:26:12.556Z,86.50
2019-05-07T12:28:41.815Z,77.80
2019-05-07T12:31:27.115Z,79.80
2019-05-07T12:34:03.346Z,77.90
2019-05-07T12:36:32.119Z,68.90
2019-05-07T12:39:02.225Z,68.10
2019-05-07T12:41:33.808Z,66.80
2019-05-07T12:44:04.490Z,66.00
2019-05-07T12:46:33.603Z,67.00
2019-05-07T12:49:03.158Z,63.80
2019-05-07T12:51:37.190Z,60.00
2019-05-07T12:54:11.978Z,62.60
2019-05-07T12:56:42.503Z,60.00
2019-05-07T12:59:12.670Z,60.00
2019-05-07T13:01:44.966Z,59.90
2019-05-07T13:04:24.039Z,66.20
2019-05-07T13:06:54.074Z,68.20
2019-05-07T13:09:22.558Z,64.10
2019-05-07T13:11:52.584Z,63.40
2019-05-07T13:14:21.815Z,59.90
2019-05-07T13:16:52.166Z,60.60
2019-05-07T13:19:22.671Z,62.50
2019-05-07T13:21:51.204Z,62.70
2019-05-07T13:24:19.797Z,65.40
2019-05-07T13:26:48.170Z,67.50
2019-05-07T13:29:16.590Z,67.40
2019-05-07T13:31:45.431Z,66.60
2019-05-07T13:34:14.104Z,67.80
2019-05-07T13:36:44.179Z,68.40
2019-05-07T13:39:14.206Z,70.60
2019-05-07T13:41:44.318Z,69.10
2019-05-07T13:44:31.787Z,69.40
2019-05-07T13:47:18.130Z,69.00
2019-05-07T13:49:47.878Z,67.30
2019-05-07T13:52:16.463Z,68.20
2019-05-07T13:54:44.921Z,70.60
2019-05-07T13:57:13.414Z,71.70
2019-05-07T13:59:42.450Z,70.60
2019-05-07T14:02:15.499Z,70.00
2019-05-07T14:04:42.666Z,69.50
2019-05-07T14:07:12.662Z,69.80
2019-05-07T14:09:42.049Z,65.80
2019-05-07T14:12:12.283Z,68.50
2019-05-07T14:14:42.566Z,67.60
2019-05-07T14:17:12.656Z,67.80
2019-05-07T14:19:42.332Z,69.80
2019-05-07T14:22:16.352Z,69.60
2019-05-07T14:24:42.217Z,69.20
2019-05-07T14:27:10.831Z,71.00
2019-05-07T14:32:18.154Z,74.00
2019-05-07T14:35:06.390Z,75.50
2019-05-07T14:37:36.452Z,75.20
2019-05-07T14:40:06.569Z,74.60
2019-05-07T14:42:38.367Z,73.10
2019-05-07T14:45:07.224Z,74.20
2019-05-07T14:47:35.699Z,73.20
2019-05-07T14:50:05.930Z,73.00
2019-05-07T14:52:36.307Z,71.90
2019-05-07T14:55:07.602Z,71.00
2019-05-07T14:57:36.804Z,70.30
2019-05-07T15:00:06.927Z,68.50
2019-05-07T15:02:35.334Z,68.80
2019-05-07T15:05:08.014Z,73.40
2019-05-07T15:07:36.854Z,72.00
2019-05-07T15:10:08.589Z,71.80
2019-05-07T15:12:37.062Z,70.90
2019-05-07T15:15:06.810Z,71.00
2019-05-07T15:17:42.814Z,72.10
2019-05-07T15:20:11.364Z,71.10
2019-05-07T15:22:49.498Z,75.50
2019-05-07T15:25:14.804Z,76.00
2019-05-07T15:27:44.199Z,76.40
2019-05-07T15:30:13.419Z,75.90
2019-05-07T15:32:42.762Z,77.90
2019-05-07T15:35:12.600Z,78.70
2019-05-07T15:37:42.677Z,77.40
2019-05-07T15:40:11.857Z,73.80
2019-05-07T15:42:42.135Z,72.40
2019-05-07T15:45:12.533Z,71.50
2019-05-07T15:47:48.783Z,71.90
2019-05-07T15:50:17.202Z,72.80
2019-05-07T15:52:57.999Z,73.70
2019-05-07T15:55:20.170Z,73.20
2019-05-07T15:57:49.246Z,74.40
2019-05-07T16:00:21.638Z,73.90
2019-05-07T16:03:06.455Z,75.50
2019-05-07T16:05:34.931Z,75.40
2019-05-07T16:08:04.258Z,74.90
2019-05-07T16:10:32.918Z,74.90
2019-05-07T16:13:01.319Z,75.40
2019-05-07T16:15:31.782Z,75.50
2019-05-07T16:18:02.802Z,75.70
2019-05-07T16:20:32.618Z,76.90
2019-05-07T16:23:14.027Z,77.50
2019-05-07T16:25:33.002Z,77.20
2019-05-07T16:28:02.132Z,77.10
2019-05-07T16:30:32.471Z,76.40
2019-05-07T16:33:02.086Z,77.30
2019-05-07T16:35:31.997Z,76.90
2019-05-07T16:38:00.693Z,76.70
2019-05-07T16:40:29.210Z,77.20
2019-05-07T16:42:57.598Z,77.20
2019-05-07T16:45:26.074Z,78.50
2019-05-07T16:47:54.478Z,77.10
2019-05-07T16:50:22.958Z,75.90
2019-05-07T16:52:52.392Z,75.90
2019-05-07T16:55:23.090Z,75.40
2019-05-07T16:57:55.858Z,76.50
2019-05-07T17:00:28.377Z,76.30
2019-05-07T17:02:58.247Z,77.80
2019-05-07T17:05:26.655Z,78.10
2019-05-07T17:07:56.695Z,79.50
2019-05-07T17:10:25.099Z,81.30
2019-05-07T17:12:53.498Z,80.10
2019-05-07T17:15:22.823Z,79.90
2019-05-07T17:18:00.102Z,78.90
2019-05-07T17:20:28.882Z,79.20
2019-05-07T17:22:57.603Z,80.20
2019-05-07T17:25:37.955Z,80.90
2019-05-07T17:28:07.590Z,81.00
2019-05-07T17:30:37.690Z,82.80
2019-05-07T17:33:07.861Z,82.40
2019-05-07T17:35:36.266Z,82.10
2019-05-07T17:38:09.458Z,80.50
2019-05-07T17:40:35.018Z,81.50
2019-05-07T17:43:03.426Z,81.40
2019-05-07T17:45:32.830Z,82.30
2019-05-07T17:48:03.195Z,81.70
2019-05-07T17:50:50.180Z,81.10
2019-05-07T17:53:18.642Z,82.80
2019-05-07T17:55:47.051Z,82.10
2019-05-07T17:58:15.451Z,82.10
2019-05-07T18:00:46.598Z,82.70
2019-05-07T18:03:32.441Z,83.10
2019-05-07T18:06:02.409Z,84.40
2019-05-07T18:08:32.589Z,84.60
2019-05-07T18:11:02.250Z,84.10
2019-05-07T18:13:32.386Z,85.10
2019-05-07T18:16:02.985Z,85.20
2019-05-07T18:18:32.781Z,84.80
2019-05-07T18:21:02.229Z,85.80
2019-05-07T18:23:32.126Z,85.80
2019-05-07T18:26:01.072Z,86.80
2019-05-07T18:28:29.585Z,87.50
2019-05-07T18:31:01.859Z,88.10
2019-05-07T18:33:33.547Z,90.30
2019-05-07T18:36:02.856Z,88.20
2019-05-07T18:38:32.997Z,89.00
2019-05-07T18:41:02.684Z,89.30
2019-05-07T18:43:33.186Z,90.20
2019-05-07T18:46:02.343Z,90.40
2019-05-07T18:48:31.156Z,90.80
2019-05-07T18:50:59.596Z,93.70
2019-05-07T18:55:56.103Z,92.20
2019-05-07T18:58:24.557Z,92.90
2019-05-07T19:00:57.705Z,92.60
2019-05-07T19:03:26.197Z,93.20
2019-05-07T19:05:55.798Z,93.20
2019-05-07T19:08:24.302Z,94.20
2019-05-07T19:10:53.164Z,96.10
2019-05-07T19:13:22.304Z,97.60
2019-05-07T19:15:53.016Z,98.90
2019-05-07T19:18:22.844Z,99.90
2019-05-07T19:20:52.916Z,99.90
2019-05-07T19:23:22.943Z,99.90
2019-05-07T19:25:52.274Z,99.90
2019-05-07T19:28:22.433Z,99.90
2019-05-07T19:30:52.795Z,99.90
2019-05-07T19:33:26.452Z,99.90
2019-05-07T19:35:52.779Z,99.90
2019-05-07T19:38:21.575Z,99.90
2019-05-07T19:40:52.629Z,99.90
2019-05-07T19:43:20.690Z,99.90
2019-05-07T19:45:49.195Z,99.90
2019-05-07T19:48:17.621Z,99.90
2019-05-07T19:50:46.050Z,99.90
2019-05-07T19:53:14.473Z,99.90
2019-05-07T19:56:02.015Z,99.90
2019-05-07T19:58:32.685Z,99.90
2019-05-07T20:01:02.298Z,99.90
2019-05-07T20:03:31.119Z,99.90
2019-05-07T20:06:02.234Z,99.90
2019-05-07T20:08:31.723Z,99.90
2019-05-07T20:11:12.072Z,99.90
2019-05-07T20:13:41.701Z,99.90
2019-05-07T20:16:20.310Z,99.90
2019-05-07T20:18:48.779Z,99.90
2019-05-07T20:21:17.191Z,99.90
2019-05-07T20:23:45.615Z,99.90
2019-05-07T20:26:14.028Z,99.90
2019-05-07T20:28:42.428Z,99.90
2019-05-07T20:31:12.169Z,99.90
2019-05-07T20:33:42.239Z,99.90
2019-05-07T20:36:10.876Z,99.90
2019-05-07T20:38:39.535Z,99.90
2019-05-07T20:41:07.958Z,99.90
2019-05-07T20:43:36.354Z,99.90
2019-05-07T20:46:05.155Z,99.90
2019-05-07T20:48:33.560Z,99.90
2019-05-07T20:51:01.977Z,99.90
2019-05-07T20:53:48.436Z,99.90
2019-05-07T20:56:18.807Z,99.90
2019-05-07T20:58:47.207Z,99.90
2019-05-07T21:01:34.975Z,99.90
2019-05-07T21:04:03.374Z,99.90
2019-05-07T21:06:32.437Z,99.90
2019-05-07T21:09:00.954Z,99.90
2019-05-07T21:11:29.362Z,99.90
2019-05-07T21:16:25.866Z,99.90
2019-05-07T21:18:54.275Z,99.90
2019-05-07T21:21:22.666Z,99.90
2019-05-07T21:23:52.758Z,99.90
2019-05-07T21:26:22.454Z,99.90
2019-05-07T21:28:52.786Z,99.90
2019-05-07T21:31:22.821Z,99.90
2019-05-07T21:33:52.354Z,99.90
2019-05-07T21:36:22.854Z,99.90
2019-05-07T21:38:51.867Z,99.90
2019-05-07T21:41:22.746Z,99.90
2019-05-07T21:43:52.626Z,99.90
2019-05-07T21:46:22.203Z,99.90
2019-05-07T21:48:51.849Z,99.90
2019-05-07T21:51:22.852Z,99.90
2019-05-07T21:53:58.602Z,99.90
2019-05-07T21:56:28.650Z,99.90
2019-05-07T21:59:03.024Z,99.90
2019-05-07T22:01:33.327Z,99.90
2019-05-07T22:04:01.995Z,99.90
2019-05-07T22:06:30.479Z,99.90
2019-05-07T22:08:58.886Z,99.90
2019-05-07T22:11:27.342Z,99.90
2019-05-07T22:13:55.782Z,99.90
2019-05-07T22:16:24.189Z,99.90
2019-05-07T22:18:52.598Z,99.90
2019-05-07T22:21:20.998Z,99.90
2019-05-07T22:23:49.420Z,99.90
2019-05-07T22:26:22.965Z,99.90
2019-05-07T22:28:48.259Z,99.90
2019-05-07T22:31:27.542Z,99.90
2019-05-07T22:33:59.268Z,99.90
2019-05-07T22:36:27.774Z,99.90
2019-05-07T22:38:56.170Z,99.90
2019-05-07T22:41:24.570Z,99.90
2019-05-07T22:43:52.974Z,99.90
2019-05-07T22:46:22.275Z,99.90
2019-05-07T22:48:50.855Z,99.90
2019-05-07T22:51:19.261Z,99.90
2019-05-07T22:53:47.684Z,99.90
2019-05-07T22:56:16.246Z,99.90
2019-05-07T22:58:46.293Z,99.90
2019-05-07T23:01:16.258Z,99.90
2019-05-07T23:03:44.668Z,99.90
2019-05-07T23:06:13.077Z,99.90
2019-05-07T23:08:42.391Z,99.90
2019-05-07T23:11:12.327Z,99.90
2019-05-07T23:13:42.731Z,99.90
2019-05-07T23:16:12.591Z,99.90
2019-05-07T23:18:42.970Z,99.90
2019-05-07T23:21:11.530Z,99.90
2019-05-07T23:23:42.146Z,99.90
2019-05-07T23:26:12.263Z,99.90
2019-05-07T23:28:41.841Z,99.90
2019-05-07T23:31:12.086Z,99.90
2019-05-07T23:33:40.767Z,99.90
2019-05-07T23:36:09.154Z,99.90
2019-05-07T23:38:37.558Z,99.90
2019-05-07T23:41:07.598Z,99.90
2019-05-07T23:43:35.998Z,99.90
2019-05-07T23:46:04.415Z,99.90
2019-05-07T23:48:32.817Z,99.90
2019-05-07T23:51:02.128Z,99.90
2019-05-07T23:53:30.698Z,99.90
2019-05-07T23:55:59.574Z,99.90
2019-05-07T23:58:27.975Z,99.90
